createdAt,value
2022-09-15T00:05:01.717Z,13.95
2022-09-15T00:10:06.386Z,13.94
2022-09-15T00:15:09.895Z,13.92
2022-09-15T00:20:12.636Z,13.89
2022-09-15T00:25:15.577Z,13.90
2022-09-15T00:30:18.320Z,13.91
2022-09-15T00:35:21.147Z,13.91
2022-09-15T00:40:24.016Z,13.89
2022-09-15T00:45:27.385Z,13.86
2022-09-15T00:50:32.102Z,13.84
2022-09-15T00:55:54.349Z,13.80
2022-09-15T01:01:01.065Z,13.76
2022-09-15T01:06:20.025Z,13.70
2022-09-15T01:11:22.908Z,13.71
2022-09-15T01:22:07.364Z,13.78
2022-09-15T01:27:41.201Z,13.72
2022-09-15T01:33:06.798Z,13.70
2022-09-15T01:38:32.133Z,13.70
2022-09-15T01:43:40.313Z,13.69
2022-09-15T01:48:43.545Z,13.66
2022-09-15T01:53:47.427Z,13.65
2022-09-15T01:58:51.530Z,13.65
2022-09-15T02:04:18.226Z,13.62
2022-09-15T02:09:54.870Z,13.59
2022-09-15T02:15:08.755Z,13.57
2022-09-15T02:20:23.759Z,13.56
2022-09-15T02:25:32.811Z,13.58
2022-09-15T02:30:41.282Z,13.57
2022-09-15T02:35:44.359Z,13.56
2022-09-15T02:40:48.094Z,13.57
2022-09-15T02:45:51.328Z,13.55
2022-09-15T02:50:54.125Z,13.49
2022-09-15T02:55:58.123Z,13.46
2022-09-15T03:01:08.297Z,13.42
2022-09-15T03:06:19.892Z,13.38
2022-09-15T03:11:26.789Z,13.34
2022-09-15T03:16:32.523Z,13.35
2022-09-15T03:21:35.862Z,13.37
2022-09-15T03:26:38.692Z,13.32
2022-09-15T03:31:41.838Z,13.28
2022-09-15T03:36:44.755Z,13.28
2022-09-15T03:41:47.682Z,13.27
2022-09-15T03:46:51.259Z,13.25
2022-09-15T03:51:54.028Z,13.26
2022-09-15T03:56:57.125Z,13.27
2022-09-15T04:01:59.959Z,13.29
2022-09-15T04:07:02.707Z,13.29
2022-09-15T04:12:06.971Z,13.24
2022-09-15T04:17:10.965Z,13.14
2022-09-15T04:22:17.672Z,13.00
2022-09-15T04:27:21.113Z,12.88
2022-09-15T04:32:23.923Z,12.75
2022-09-15T04:37:26.841Z,12.63
2022-09-15T04:42:29.625Z,12.52
2022-09-15T04:47:32.330Z,12.46
2022-09-15T04:52:35.058Z,12.42
2022-09-15T04:57:37.827Z,12.47
2022-09-15T05:02:40.535Z,12.55
2022-09-15T05:07:43.660Z,12.66
2022-09-15T05:12:46.448Z,12.75
2022-09-15T05:17:49.985Z,12.86
2022-09-15T05:22:52.706Z,12.95
2022-09-15T05:27:55.446Z,13.09
2022-09-15T05:32:58.400Z,13.26
2022-09-15T05:38:01.125Z,13.39
2022-09-15T05:43:03.995Z,13.55
2022-09-15T05:48:06.781Z,13.76
2022-09-15T05:53:12.158Z,13.88
2022-09-15T05:58:23.398Z,14.80
2022-09-15T06:03:30.926Z,18.36
2022-09-15T06:08:36.780Z,21.29
2022-09-15T06:13:40.485Z,23.69
2022-09-15T06:18:43.938Z,25.25
2022-09-15T06:23:53.996Z,24.25
2022-09-15T06:29:02.155Z,22.79
2022-09-15T06:34:11.552Z,21.63
2022-09-15T06:39:14.287Z,20.51
2022-09-15T06:44:17.423Z,19.68
2022-09-15T06:49:21.965Z,19.29
2022-09-15T06:54:24.749Z,19.17
2022-09-15T06:59:27.957Z,18.92
2022-09-15T07:04:38.398Z,18.67
2022-09-15T07:09:42.802Z,19.22
2022-09-15T07:14:47.068Z,21.88
2022-09-15T07:19:50.078Z,23.93
2022-09-15T07:24:52.972Z,25.06
2022-09-15T07:29:56.119Z,25.32
2022-09-15T07:34:59.397Z,23.62
2022-09-15T07:40:04.928Z,22.50
2022-09-15T07:45:08.371Z,23.11
2022-09-15T07:50:11.528Z,23.27
2022-09-15T07:55:15.768Z,24.37
2022-09-15T08:00:18.896Z,25.11
2022-09-15T08:05:26.119Z,25.72
2022-09-15T08:10:28.870Z,25.98
2022-09-15T08:15:31.809Z,26.15
2022-09-15T08:20:34.927Z,26.24
2022-09-15T08:25:40.846Z,26.26
2022-09-15T08:30:46.242Z,25.99
2022-09-15T08:35:49.212Z,24.91
2022-09-15T08:41:00.527Z,24.36
2022-09-15T08:46:09.221Z,23.88
2022-09-15T08:51:20.764Z,23.18
2022-09-15T08:56:23.532Z,22.68
2022-09-15T09:01:45.076Z,22.23
2022-09-15T09:07:14.604Z,22.14
2022-09-15T09:12:44.851Z,22.31
2022-09-15T09:18:27.020Z,22.60
2022-09-15T09:23:43.161Z,22.48
2022-09-15T09:28:50.373Z,22.02
2022-09-15T09:34:16.496Z,21.94
2022-09-15T09:39:19.292Z,21.87
2022-09-15T09:44:32.125Z,21.80
2022-09-15T09:49:40.044Z,21.26
2022-09-15T09:54:42.901Z,20.70
2022-09-15T09:59:47.743Z,20.52
2022-09-15T10:04:50.657Z,20.33
2022-09-15T10:09:59.842Z,19.96
2022-09-15T10:15:06.842Z,19.87
2022-09-15T10:20:25.552Z,19.98
2022-09-15T10:25:49.354Z,20.03
2022-09-15T10:31:03.348Z,19.72
2022-09-15T10:36:08.457Z,19.47
2022-09-15T10:41:31.200Z,19.32
2022-09-15T10:46:50.665Z,19.09
2022-09-15T10:52:13.634Z,18.99
2022-09-15T10:57:35.903Z,18.95
2022-09-15T11:03:09.834Z,19.18
2022-09-15T11:08:20.818Z,19.52
2022-09-15T11:13:26.740Z,19.50
2022-09-15T11:18:50.446Z,19.32
2022-09-15T11:24:34.225Z,19.14
2022-09-15T11:30:02.568Z,19.20
2022-09-15T11:35:38.464Z,19.42
2022-09-15T11:41:19.112Z,19.39
2022-09-15T11:46:51.014Z,19.42
2022-09-15T11:52:23.286Z,19.53
2022-09-15T11:57:32.211Z,19.67
2022-09-15T12:03:13.749Z,19.84
2022-09-15T12:08:27.436Z,20.04
2022-09-15T12:13:31.810Z,20.03
2022-09-15T12:18:54.369Z,19.84
2022-09-15T12:24:46.119Z,19.83
2022-09-15T12:29:57.524Z,19.77
2022-09-15T12:35:15.747Z,19.69
2022-09-15T12:40:33.557Z,19.77
2022-09-15T12:45:37.173Z,19.79
2022-09-15T12:50:43.447Z,19.79
2022-09-15T12:56:20.929Z,19.73
2022-09-15T13:01:24.655Z,19.63
2022-09-15T13:06:29.975Z,19.65
2022-09-15T13:11:47.545Z,19.69
2022-09-15T13:17:06.701Z,19.61
2022-09-15T13:22:12.152Z,19.52
2022-09-15T13:27:22.423Z,19.52
2022-09-15T13:32:40.348Z,19.43
2022-09-15T13:38:32.272Z,19.23
2022-09-15T13:44:18.003Z,19.28
2022-09-15T13:49:49.446Z,19.37
2022-09-15T13:55:21.769Z,19.30
2022-09-15T14:00:24.748Z,19.17
2022-09-15T14:05:31.050Z,19.13
2022-09-15T14:10:42.134Z,19.05
2022-09-15T14:16:02.299Z,19.02
2022-09-15T14:21:06.076Z,19.00
2022-09-15T14:26:14.932Z,18.82
2022-09-15T14:31:26.521Z,18.50
2022-09-15T14:36:33.708Z,18.14
2022-09-15T14:41:37.131Z,17.72
2022-09-15T14:46:39.936Z,17.52
2022-09-15T14:51:49.141Z,17.35
2022-09-15T14:56:54.199Z,17.26
2022-09-15T15:02:06.259Z,17.22
2022-09-15T15:07:20.123Z,17.18
2022-09-15T15:12:36.226Z,16.97
2022-09-15T15:17:51.102Z,16.73
2022-09-15T15:23:24.577Z,16.56
2022-09-15T15:28:37.761Z,16.41
2022-09-15T15:34:24.270Z,16.33
2022-09-15T15:39:27.090Z,16.28
2022-09-15T15:44:31.476Z,16.20
2022-09-15T15:49:34.708Z,16.08
2022-09-15T15:54:41.862Z,15.92
2022-09-15T15:59:46.950Z,15.77
2022-09-15T16:04:49.913Z,15.64
2022-09-15T16:09:56.430Z,15.54
2022-09-15T16:14:59.162Z,15.43
2022-09-15T16:20:02.432Z,15.33
2022-09-15T16:25:21.510Z,15.23
2022-09-15T16:30:24.293Z,15.13
2022-09-15T16:35:46.017Z,15.04
2022-09-15T16:40:51.435Z,14.99
2022-09-15T16:45:55.240Z,14.95
2022-09-15T16:56:21.120Z,14.85
2022-09-15T17:01:25.619Z,14.75
2022-09-15T17:06:29.094Z,14.59
2022-09-15T17:11:32.313Z,14.42
2022-09-15T17:16:35.083Z,14.28
2022-09-15T17:21:37.859Z,14.20
2022-09-15T17:26:41.061Z,14.17
2022-09-15T17:31:43.811Z,14.14
2022-09-15T17:36:46.721Z,14.11
2022-09-15T17:41:49.516Z,14.03
2022-09-15T17:46:53.733Z,13.92
2022-09-15T17:51:56.518Z,13.80
2022-09-15T17:56:59.649Z,13.66
2022-09-15T18:02:02.557Z,13.52
2022-09-15T18:07:11.629Z,13.37
2022-09-15T18:12:14.777Z,13.22
2022-09-15T18:17:17.718Z,13.07
2022-09-15T18:22:23.029Z,12.94
2022-09-15T18:27:25.950Z,12.86
2022-09-15T18:32:28.741Z,12.79
2022-09-15T18:37:31.621Z,12.69
2022-09-15T18:42:35.396Z,12.58
2022-09-15T18:47:38.604Z,12.49
2022-09-15T18:52:41.957Z,12.37
2022-09-15T18:57:45.466Z,12.24
2022-09-15T19:02:48.864Z,12.11
2022-09-15T19:07:51.663Z,11.97
2022-09-15T19:12:54.777Z,11.87
2022-09-15T19:17:57.772Z,11.79
2022-09-15T19:23:00.610Z,11.72
2022-09-15T19:28:03.849Z,11.62
2022-09-15T19:33:06.954Z,11.53
2022-09-15T19:38:09.783Z,11.43
2022-09-15T19:43:12.651Z,11.38
2022-09-15T19:48:15.543Z,11.35
2022-09-15T19:53:18.744Z,11.31
2022-09-15T19:58:21.664Z,11.27
2022-09-15T20:03:29.348Z,11.20
2022-09-15T20:08:32.838Z,11.16
2022-09-15T20:13:41.420Z,11.12
2022-09-15T20:18:48.843Z,11.07
2022-09-15T20:23:52.929Z,11.03
2022-09-15T20:28:55.658Z,10.96
2022-09-15T20:34:00.973Z,10.91
2022-09-15T20:39:06.617Z,10.91
2022-09-15T20:44:09.585Z,10.89
2022-09-15T20:49:12.794Z,10.87
2022-09-15T20:54:15.639Z,10.80
2022-09-15T20:59:19.488Z,10.76
2022-09-15T21:04:22.351Z,10.72
2022-09-15T21:09:25.675Z,10.69
2022-09-15T21:14:28.455Z,10.63
2022-09-15T21:19:31.661Z,10.60
2022-09-15T21:24:34.350Z,10.58
2022-09-15T21:29:37.189Z,10.54
2022-09-15T21:34:39.955Z,10.50
2022-09-15T21:39:43.300Z,10.48
2022-09-15T21:44:46.116Z,10.46
2022-09-15T21:49:49.225Z,10.42
2022-09-15T21:54:52.024Z,10.37
2022-09-15T21:59:54.793Z,10.32
2022-09-15T22:04:59.758Z,10.27
2022-09-15T22:10:02.447Z,10.23
2022-09-15T22:15:06.309Z,10.19
2022-09-15T22:20:09.462Z,10.18
2022-09-15T22:25:12.441Z,10.20
2022-09-15T22:30:15.185Z,10.25
2022-09-15T22:35:18.021Z,10.32
2022-09-15T22:40:20.977Z,10.39
2022-09-15T22:45:23.781Z,10.48
2022-09-15T22:50:26.487Z,10.61
2022-09-15T22:55:32.416Z,10.72
2022-09-15T23:00:38.296Z,10.82
2022-09-15T23:05:41.395Z,10.91
2022-09-15T23:10:44.098Z,10.97
2022-09-15T23:15:49.116Z,11.06
2022-09-15T23:21:07.446Z,11.10
2022-09-15T23:26:12.144Z,11.08
2022-09-15T23:31:15.733Z,11.02
2022-09-15T23:36:22.018Z,10.91
2022-09-15T23:41:24.868Z,10.80
2022-09-15T23:46:27.607Z,10.66
2022-09-15T23:51:31.199Z,10.54
2022-09-15T23:56:34.047Z,10.45
